logo dgac
Miércoles 19 de Junio del 2024
Buscar por aerodromo o helipuerto
Ingrese nombre de aeródromo, localidad o designador OACI:
TAF: TAF SCPQ 191110Z 1912/1924 36007KT 9999 SCT025 BKN035 TN01/1913Z TX07/1919Z TEMPO 1915/1919 VRB02KT 8000 SHRA BKN020
TAF del 19/06/2024 a las 11:10 UTC
Para mayor información visite www.meteochile.gob.cl
Período de validez: desde el 19 a las 12:00 UTC hasta el 19 a las 24:00 UTC
Viento: dirección 360 grados, velocidad 7 nudos
Visibilidad: 10 km o más
Nubes: Nubosidad parcial a 2500 pies sobre el nivel del aeródromo
Nubes: Nublado a 3500 pies sobre el nivel del aeródromo
Temperatura mínima: 1ºC el 19 a las 13:00 UTC
Temperatura máxima: 7ºC el 19 a las 19:00 UTC
Se espera en forma temporal entre las 15:00 UTC del 19 y las 19:00 UTC del 19:
Viento: dirección variable, velocidad 2 nudos
Visibilidad: 8000 metros
ChubascosLluvia
Nubes: Nublado a 2000 pies sobre el nivel del aeródromo